sensor_id;sensor_type;location;lat;lon;timestamp;P1;durP1;ratioP1;P2;durP2;ratioP2
21162;SDS011;10739;52.198;20.908;2023-04-24T00:00:40;12.07;;;7.93;;
21162;SDS011;10739;52.198;20.908;2023-04-24T00:03:06;13.20;;;8.52;;
21162;SDS011;10739;52.198;20.908;2023-04-24T00:05:33;14.32;;;8.38;;
21162;SDS011;10739;52.198;20.908;2023-04-24T00:07:59;12.00;;;7.32;;
21162;SDS011;10739;52.198;20.908;2023-04-24T00:10:26;16.48;;;8.95;;
21162;SDS011;10739;52.198;20.908;2023-04-24T00:12:52;11.90;;;8.65;;
21162;SDS011;10739;52.198;20.908;2023-04-24T00:15:18;17.33;;;9.15;;
21162;SDS011;10739;52.198;20.908;2023-04-24T00:17:45;12.77;;;8.23;;
21162;SDS011;10739;52.198;20.908;2023-04-24T00:20:11;17.20;;;8.40;;
21162;SDS011;10739;52.198;20.908;2023-04-24T00:22:38;15.27;;;8.52;;
21162;SDS011;10739;52.198;20.908;2023-04-24T00:25:05;14.27;;;8.93;;
21162;SDS011;10739;52.198;20.908;2023-04-24T00:27:31;12.63;;;8.63;;
21162;SDS011;10739;52.198;20.908;2023-04-24T00:29:58;10.93;;;8.45;;
21162;SDS011;10739;52.198;20.908;2023-04-24T00:32:24;13.63;;;8.95;;
21162;SDS011;10739;52.198;20.908;2023-04-24T00:34:50;13.05;;;8.55;;
21162;SDS011;10739;52.198;20.908;2023-04-24T00:37:16;11.27;;;8.30;;
21162;SDS011;10739;52.198;20.908;2023-04-24T00:39:43;15.27;;;10.45;;
21162;SDS011;10739;52.198;20.908;2023-04-24T00:42:09;20.33;;;9.50;;
21162;SDS011;10739;52.198;20.908;2023-04-24T00:44:36;10.95;;;9.10;;
21162;SDS011;10739;52.198;20.908;2023-04-24T00:47:02;11.60;;;8.77;;
21162;SDS011;10739;52.198;20.908;2023-04-24T00:49:29;20.30;;;9.88;;
21162;SDS011;10739;52.198;20.908;2023-04-24T00:51:55;15.75;;;9.02;;
21162;SDS011;10739;52.198;20.908;2023-04-24T00:54:22;14.85;;;8.73;;
21162;SDS011;10739;52.198;20.908;2023-04-24T00:56:48;16.08;;;9.57;;
21162;SDS011;10739;52.198;20.908;2023-04-24T00:59:16;13.35;;;8.23;;
21162;SDS011;10739;52.198;20.908;2023-04-24T01:01:44;16.25;;;9.00;;
21162;SDS011;10739;52.198;20.908;2023-04-24T01:04:11;12.00;;;8.02;;
21162;SDS011;10739;52.198;20.908;2023-04-24T01:06:38;12.38;;;8.93;;
21162;SDS011;10739;52.198;20.908;2023-04-24T01:09:05;15.18;;;9.13;;
21162;SDS011;10739;52.198;20.908;2023-04-24T01:11:36;13.93;;;9.25;;
21162;SDS011;10739;52.198;20.908;2023-04-24T01:14:03;17.85;;;8.40;;
21162;SDS011;10739;52.198;20.908;2023-04-24T01:16:29;14.32;;;8.77;;
21162;SDS011;10739;52.198;20.908;2023-04-24T01:18:56;13.23;;;9.00;;
21162;SDS011;10739;52.198;20.908;2023-04-24T01:21:22;14.20;;;8.70;;
21162;SDS011;10739;52.198;20.908;2023-04-24T01:26:22;16.25;;;8.80;;
21162;SDS011;10739;52.198;20.908;2023-04-24T01:28:50;17.42;;;9.55;;
21162;SDS011;10739;52.198;20.908;2023-04-24T01:31:17;12.95;;;9.45;;
21162;SDS011;10739;52.198;20.908;2023-04-24T01:33:44;17.45;;;9.52;;
21162;SDS011;10739;52.198;20.908;2023-04-24T01:36:11;16.40;;;9.57;;
21162;SDS011;10739;52.198;20.908;2023-04-24T01:38:37;21.35;;;9.85;;
21162;SDS011;10739;52.198;20.908;2023-04-24T01:41:03;13.90;;;9.18;;
21162;SDS011;10739;52.198;20.908;2023-04-24T01:43:30;14.45;;;9.02;;
21162;SDS011;10739;52.198;20.908;2023-04-24T01:45:57;16.50;;;9.20;;
21162;SDS011;10739;52.198;20.908;2023-04-24T01:48:23;17.45;;;9.52;;
21162;SDS011;10739;52.198;20.908;2023-04-24T01:50:49;12.85;;;9.00;;
21162;SDS011;10739;52.198;20.908;2023-04-24T01:53:16;17.38;;;9.73;;
21162;SDS011;10739;52.198;20.908;2023-04-24T01:55:42;13.23;;;9.70;;
21162;SDS011;10739;52.198;20.908;2023-04-24T01:58:08;15.98;;;10.07;;
21162;SDS011;10739;52.198;20.908;2023-04-24T02:00:35;17.15;;;9.70;;
21162;SDS011;10739;52.198;20.908;2023-04-24T02:03:01;15.55;;;9.27;;
21162;SDS011;10739;52.198;20.908;2023-04-24T02:05:27;14.32;;;8.63;;
21162;SDS011;10739;52.198;20.908;2023-04-24T02:07:54;20.33;;;8.77;;
21162;SDS011;10739;52.198;20.908;2023-04-24T02:10:20;13.15;;;9.07;;
21162;SDS011;10739;52.198;20.908;2023-04-24T02:12:46;17.45;;;9.43;;
21162;SDS011;10739;52.198;20.908;2023-04-24T02:15:12;14.82;;;9.55;;
21162;SDS011;10739;52.198;20.908;2023-04-24T02:17:39;17.73;;;9.15;;
21162;SDS011;10739;52.198;20.908;2023-04-24T02:20:06;16.92;;;9.40;;
21162;SDS011;10739;52.198;20.908;2023-04-24T02:22:33;13.50;;;9.27;;
21162;SDS011;10739;52.198;20.908;2023-04-24T02:24:59;13.82;;;8.90;;
21162;SDS011;10739;52.198;20.908;2023-04-24T02:27:26;14.18;;;8.50;;
21162;SDS011;10739;52.198;20.908;2023-04-24T02:29:52;18.00;;;10.20;;
21162;SDS011;10739;52.198;20.908;2023-04-24T02:32:18;16.02;;;10.73;;
21162;SDS011;10739;52.198;20.908;2023-04-24T02:34:44;22.88;;;12.68;;
21162;SDS011;10739;52.198;20.908;2023-04-24T02:37:11;15.88;;;10.02;;
21162;SDS011;10739;52.198;20.908;2023-04-24T02:39:37;14.85;;;9.80;;
21162;SDS011;10739;52.198;20.908;2023-04-24T02:42:04;12.50;;;9.57;;
21162;SDS011;10739;52.198;20.908;2023-04-24T02:44:30;14.52;;;9.70;;
21162;SDS011;10739;52.198;20.908;2023-04-24T02:46:56;13.05;;;9.13;;
21162;SDS011;10739;52.198;20.908;2023-04-24T02:49:23;15.32;;;9.63;;
21162;SDS011;10739;52.198;20.908;2023-04-24T02:51:49;13.43;;;9.35;;
21162;SDS011;10739;52.198;20.908;2023-04-24T02:54:15;16.65;;;10.27;;
21162;SDS011;10739;52.198;20.908;2023-04-24T02:56:42;19.10;;;9.90;;
21162;SDS011;10739;52.198;20.908;2023-04-24T02:59:08;18.35;;;10.10;;
21162;SDS011;10739;52.198;20.908;2023-04-24T03:01:35;12.80;;;8.77;;
21162;SDS011;10739;52.198;20.908;2023-04-24T03:04:02;17.75;;;10.35;;
21162;SDS011;10739;52.198;20.908;2023-04-24T03:06:29;18.10;;;10.05;;
21162;SDS011;10739;52.198;20.908;2023-04-24T03:08:56;16.10;;;9.48;;
21162;SDS011;10739;52.198;20.908;2023-04-24T03:11:22;19.85;;;9.52;;
21162;SDS011;10739;52.198;20.908;2023-04-24T03:13:49;14.02;;;10.15;;
21162;SDS011;10739;52.198;20.908;2023-04-24T03:16:15;14.63;;;9.50;;
21162;SDS011;10739;52.198;20.908;2023-04-24T03:18:41;12.93;;;9.77;;
21162;SDS011;10739;52.198;20.908;2023-04-24T03:21:08;15.75;;;9.18;;
21162;SDS011;10739;52.198;20.908;2023-04-24T03:23:34;13.23;;;8.95;;
21162;SDS011;10739;52.198;20.908;2023-04-24T03:26:00;14.27;;;9.07;;
21162;SDS011;10739;52.198;20.908;2023-04-24T03:28:27;13.93;;;9.63;;
21162;SDS011;10739;52.198;20.908;2023-04-24T03:30:53;13.10;;;8.88;;
21162;SDS011;10739;52.198;20.908;2023-04-24T03:33:20;16.58;;;9.43;;
21162;SDS011;10739;52.198;20.908;2023-04-24T03:35:46;13.50;;;8.45;;
21162;SDS011;10739;52.198;20.908;2023-04-24T03:38:12;21.02;;;9.45;;
21162;SDS011;10739;52.198;20.908;2023-04-24T03:40:39;15.00;;;9.65;;
21162;SDS011;10739;52.198;20.908;2023-04-24T03:43:05;13.75;;;9.02;;
21162;SDS011;10739;52.198;20.908;2023-04-24T03:45:31;18.25;;;9.80;;
21162;SDS011;10739;52.198;20.908;2023-04-24T03:47:57;19.55;;;9.43;;
21162;SDS011;10739;52.198;20.908;2023-04-24T03:50:24;14.35;;;9.25;;
21162;SDS011;10739;52.198;20.908;2023-04-24T03:52:52;17.80;;;8.75;;
21162;SDS011;10739;52.198;20.908;2023-04-24T03:55:18;14.27;;;9.32;;
21162;SDS011;10739;52.198;20.908;2023-04-24T03:57:45;12.43;;;9.23;;
21162;SDS011;10739;52.198;20.908;2023-04-24T04:00:11;16.27;;;10.07;;
21162;SDS011;10739;52.198;20.908;2023-04-24T04:02:38;16.13;;;9.63;;
21162;SDS011;10739;52.198;20.908;2023-04-24T04:05:05;15.43;;;9.15;;
21162;SDS011;10739;52.198;20.908;2023-04-24T04:07:31;14.45;;;8.77;;
21162;SDS011;10739;52.198;20.908;2023-04-24T04:09:57;16.35;;;9.23;;
21162;SDS011;10739;52.198;20.908;2023-04-24T04:12:24;11.82;;;8.70;;
21162;SDS011;10739;52.198;20.908;2023-04-24T04:14:50;14.25;;;8.55;;
21162;SDS011;10739;52.198;20.908;2023-04-24T04:17:16;17.95;;;8.60;;
21162;SDS011;10739;52.198;20.908;2023-04-24T04:19:43;13.32;;;9.15;;
21162;SDS011;10739;52.198;20.908;2023-04-24T04:22:10;16.30;;;8.80;;
21162;SDS011;10739;52.198;20.908;2023-04-24T04:24:36;16.65;;;9.32;;
21162;SDS011;10739;52.198;20.908;2023-04-24T04:27:06;14.10;;;9.13;;
21162;SDS011;10739;52.198;20.908;2023-04-24T04:29:33;17.35;;;9.23;;
21162;SDS011;10739;52.198;20.908;2023-04-24T04:32:01;12.40;;;9.13;;
21162;SDS011;10739;52.198;20.908;2023-04-24T04:34:27;18.60;;;9.52;;
21162;SDS011;10739;52.198;20.908;2023-04-24T04:36:54;11.82;;;8.90;;
21162;SDS011;10739;52.198;20.908;2023-04-24T04:39:21;20.83;;;9.10;;
21162;SDS011;10739;52.198;20.908;2023-04-24T04:41:47;14.93;;;8.55;;
21162;SDS011;10739;52.198;20.908;2023-04-24T04:44:14;18.30;;;9.73;;
21162;SDS011;10739;52.198;20.908;2023-04-24T04:46:40;16.52;;;9.07;;
21162;SDS011;10739;52.198;20.908;2023-04-24T04:49:07;17.35;;;9.82;;
21162;SDS011;10739;52.198;20.908;2023-04-24T04:51:34;14.07;;;9.57;;
21162;SDS011;10739;52.198;20.908;2023-04-24T04:54:00;17.55;;;9.60;;
21162;SDS011;10739;52.198;20.908;2023-04-24T04:56:27;17.05;;;9.57;;
21162;SDS011;10739;52.198;20.908;2023-04-24T04:58:53;20.40;;;10.98;;
21162;SDS011;10739;52.198;20.908;2023-04-24T05:01:20;15.32;;;9.32;;
21162;SDS011;10739;52.198;20.908;2023-04-24T05:03:48;17.88;;;9.57;;
21162;SDS011;10739;52.198;20.908;2023-04-24T05:06:14;17.45;;;9.07;;
21162;SDS011;10739;52.198;20.908;2023-04-24T05:08:41;15.15;;;9.15;;
21162;SDS011;10739;52.198;20.908;2023-04-24T05:11:07;16.50;;;9.65;;
21162;SDS011;10739;52.198;20.908;2023-04-24T05:13:33;17.85;;;9.70;;
21162;SDS011;10739;52.198;20.908;2023-04-24T05:16:00;19.55;;;9.82;;
21162;SDS011;10739;52.198;20.908;2023-04-24T05:18:26;15.98;;;9.35;;
21162;SDS011;10739;52.198;20.908;2023-04-24T05:20:53;17.30;;;9.32;;
21162;SDS011;10739;52.198;20.908;2023-04-24T05:23:19;20.58;;;9.68;;
21162;SDS011;10739;52.198;20.908;2023-04-24T05:25:45;15.00;;;10.02;;
21162;SDS011;10739;52.198;20.908;2023-04-24T05:28:12;15.93;;;10.05;;
21162;SDS011;10739;52.198;20.908;2023-04-24T05:30:38;13.40;;;9.57;;
21162;SDS011;10739;52.198;20.908;2023-04-24T05:33:05;17.20;;;10.27;;
21162;SDS011;10739;52.198;20.908;2023-04-24T05:35:31;18.77;;;10.30;;
21162;SDS011;10739;52.198;20.908;2023-04-24T05:37:57;20.25;;;10.15;;
21162;SDS011;10739;52.198;20.908;2023-04-24T05:40:23;20.10;;;11.98;;
21162;SDS011;10739;52.198;20.908;2023-04-24T05:42:50;25.10;;;11.43;;
21162;SDS011;10739;52.198;20.908;2023-04-24T05:45:16;18.45;;;10.27;;
21162;SDS011;10739;52.198;20.908;2023-04-24T05:47:43;22.48;;;9.98;;
21162;SDS011;10739;52.198;20.908;2023-04-24T05:50:10;16.73;;;10.55;;
21162;SDS011;10739;52.198;20.908;2023-04-24T05:52:37;23.65;;;10.30;;
21162;SDS011;10739;52.198;20.908;2023-04-24T05:55:03;17.92;;;9.23;;
21162;SDS011;10739;52.198;20.908;2023-04-24T05:57:30;17.83;;;9.52;;
21162;SDS011;10739;52.198;20.908;2023-04-24T05:59:57;16.35;;;9.18;;
21162;SDS011;10739;52.198;20.908;2023-04-24T06:02:23;15.82;;;9.23;;
21162;SDS011;10739;52.198;20.908;2023-04-24T06:04:49;19.75;;;9.05;;
21162;SDS011;10739;52.198;20.908;2023-04-24T06:07:15;16.13;;;8.70;;
21162;SDS011;10739;52.198;20.908;2023-04-24T06:09:42;24.25;;;9.18;;
21162;SDS011;10739;52.198;20.908;2023-04-24T06:12:08;17.15;;;9.43;;
21162;SDS011;10739;52.198;20.908;2023-04-24T06:14:35;16.17;;;9.73;;
21162;SDS011;10739;52.198;20.908;2023-04-24T06:17:01;28.63;;;10.07;;
21162;SDS011;10739;52.198;20.908;2023-04-24T06:19:27;21.70;;;9.68;;
21162;SDS011;10739;52.198;20.908;2023-04-24T06:21:53;20.35;;;8.88;;
21162;SDS011;10739;52.198;20.908;2023-04-24T06:24:19;20.73;;;9.70;;
21162;SDS011;10739;52.198;20.908;2023-04-24T06:26:46;21.15;;;9.38;;
21162;SDS011;10739;52.198;20.908;2023-04-24T06:29:12;17.60;;;9.73;;
21162;SDS011;10739;52.198;20.908;2023-04-24T06:31:38;24.17;;;8.85;;
21162;SDS011;10739;52.198;20.908;2023-04-24T06:34:05;14.95;;;8.57;;
21162;SDS011;10739;52.198;20.908;2023-04-24T06:36:31;15.70;;;8.10;;
21162;SDS011;10739;52.198;20.908;2023-04-24T06:38:59;17.17;;;8.52;;
21162;SDS011;10739;52.198;20.908;2023-04-24T06:41:26;25.15;;;8.07;;
21162;SDS011;10739;52.198;20.908;2023-04-24T06:43:53;15.00;;;8.00;;
21162;SDS011;10739;52.198;20.908;2023-04-24T06:46:19;17.17;;;8.45;;
21162;SDS011;10739;52.198;20.908;2023-04-24T06:48:49;18.00;;;8.32;;
21162;SDS011;10739;52.198;20.908;2023-04-24T06:51:15;14.20;;;8.95;;
21162;SDS011;10739;52.198;20.908;2023-04-24T06:53:43;17.33;;;8.23;;
21162;SDS011;10739;52.198;20.908;2023-04-24T06:56:10;16.08;;;8.13;;
21162;SDS011;10739;52.198;20.908;2023-04-24T06:58:36;11.23;;;8.07;;
21162;SDS011;10739;52.198;20.908;2023-04-24T07:01:02;15.68;;;7.80;;
21162;SDS011;10739;52.198;20.908;2023-04-24T07:03:28;13.38;;;7.65;;
21162;SDS011;10739;52.198;20.908;2023-04-24T07:05:54;14.98;;;7.45;;
21162;SDS011;10739;52.198;20.908;2023-04-24T07:08:20;13.50;;;7.72;;
21162;SDS011;10739;52.198;20.908;2023-04-24T07:10:47;11.30;;;7.18;;
21162;SDS011;10739;52.198;20.908;2023-04-24T07:13:14;11.55;;;7.38;;
21162;SDS011;10739;52.198;20.908;2023-04-24T07:15:41;13.93;;;7.57;;
21162;SDS011;10739;52.198;20.908;2023-04-24T07:18:07;19.50;;;8.57;;
21162;SDS011;10739;52.198;20.908;2023-04-24T07:20:33;18.65;;;7.72;;
21162;SDS011;10739;52.198;20.908;2023-04-24T07:23:00;16.77;;;7.25;;
21162;SDS011;10739;52.198;20.908;2023-04-24T07:25:27;21.67;;;9.10;;
21162;SDS011;10739;52.198;20.908;2023-04-24T07:27:54;20.88;;;9.10;;
21162;SDS011;10739;52.198;20.908;2023-04-24T07:30:20;20.10;;;8.77;;
21162;SDS011;10739;52.198;20.908;2023-04-24T07:32:46;18.83;;;8.27;;
21162;SDS011;10739;52.198;20.908;2023-04-24T07:35:13;19.48;;;8.05;;
21162;SDS011;10739;52.198;20.908;2023-04-24T07:37:39;16.92;;;8.18;;
21162;SDS011;10739;52.198;20.908;2023-04-24T07:40:05;21.80;;;9.07;;
21162;SDS011;10739;52.198;20.908;2023-04-24T07:42:33;17.92;;;7.57;;
21162;SDS011;10739;52.198;20.908;2023-04-24T07:44:59;15.40;;;7.95;;
21162;SDS011;10739;52.198;20.908;2023-04-24T07:47:26;18.75;;;8.48;;
21162;SDS011;10739;52.198;20.908;2023-04-24T07:49:52;15.10;;;7.97;;
21162;SDS011;10739;52.198;20.908;2023-04-24T07:52:19;22.30;;;8.20;;
21162;SDS011;10739;52.198;20.908;2023-04-24T07:54:46;20.55;;;7.57;;
21162;SDS011;10739;52.198;20.908;2023-04-24T07:57:12;14.80;;;8.60;;
21162;SDS011;10739;52.198;20.908;2023-04-24T07:59:39;23.30;;;8.23;;
21162;SDS011;10739;52.198;20.908;2023-04-24T08:02:05;20.92;;;8.27;;
21162;SDS011;10739;52.198;20.908;2023-04-24T08:04:31;15.90;;;8.40;;
21162;SDS011;10739;52.198;20.908;2023-04-24T08:06:58;18.08;;;8.77;;
21162;SDS011;10739;52.198;20.908;2023-04-24T08:09:24;17.27;;;8.20;;
21162;SDS011;10739;52.198;20.908;2023-04-24T08:11:51;15.07;;;8.15;;
21162;SDS011;10739;52.198;20.908;2023-04-24T08:14:18;15.27;;;7.82;;
21162;SDS011;10739;52.198;20.908;2023-04-24T08:16:45;17.52;;;8.35;;
21162;SDS011;10739;52.198;20.908;2023-04-24T08:19:12;13.63;;;8.00;;
21162;SDS011;10739;52.198;20.908;2023-04-24T08:21:38;17.08;;;8.07;;
21162;SDS011;10739;52.198;20.908;2023-04-24T08:24:05;20.23;;;8.75;;
21162;SDS011;10739;52.198;20.908;2023-04-24T08:26:33;16.33;;;7.88;;
21162;SDS011;10739;52.198;20.908;2023-04-24T08:28:59;20.17;;;8.85;;
21162;SDS011;10739;52.198;20.908;2023-04-24T08:31:26;24.95;;;8.93;;
21162;SDS011;10739;52.198;20.908;2023-04-24T08:33:52;17.45;;;8.55;;
21162;SDS011;10739;52.198;20.908;2023-04-24T08:36:18;15.77;;;7.60;;
21162;SDS011;10739;52.198;20.908;2023-04-24T08:38:44;12.18;;;7.65;;
21162;SDS011;10739;52.198;20.908;2023-04-24T08:41:11;11.55;;;7.60;;
21162;SDS011;10739;52.198;20.908;2023-04-24T08:43:41;15.93;;;7.53;;
21162;SDS011;10739;52.198;20.908;2023-04-24T08:46:08;15.27;;;7.28;;
21162;SDS011;10739;52.198;20.908;2023-04-24T08:48:37;14.07;;;7.38;;
21162;SDS011;10739;52.198;20.908;2023-04-24T08:51:08;21.35;;;7.20;;
21162;SDS011;10739;52.198;20.908;2023-04-24T08:53:35;17.92;;;7.38;;
21162;SDS011;10739;52.198;20.908;2023-04-24T08:56:01;18.98;;;7.43;;
21162;SDS011;10739;52.198;20.908;2023-04-24T08:58:28;17.55;;;7.88;;
21162;SDS011;10739;52.198;20.908;2023-04-24T09:01:05;16.48;;;8.00;;
21162;SDS011;10739;52.198;20.908;2023-04-24T09:03:33;21.42;;;8.10;;
21162;SDS011;10739;52.198;20.908;2023-04-24T09:06:00;11.45;;;7.30;;
21162;SDS011;10739;52.198;20.908;2023-04-24T09:08:28;15.18;;;7.78;;
21162;SDS011;10739;52.198;20.908;2023-04-24T09:10:56;20.10;;;7.38;;
21162;SDS011;10739;52.198;20.908;2023-04-24T09:13:24;19.25;;;7.22;;
21162;SDS011;10739;52.198;20.908;2023-04-24T09:15:50;17.23;;;7.18;;
21162;SDS011;10739;52.198;20.908;2023-04-24T09:18:17;11.48;;;6.57;;
21162;SDS011;10739;52.198;20.908;2023-04-24T09:20:57;12.90;;;6.88;;
21162;SDS011;10739;52.198;20.908;2023-04-24T09:23:29;13.98;;;7.72;;
21162;SDS011;10739;52.198;20.908;2023-04-24T09:25:57;16.73;;;7.70;;
21162;SDS011;10739;52.198;20.908;2023-04-24T09:28:31;15.45;;;7.70;;
21162;SDS011;10739;52.198;20.908;2023-04-24T09:31:05;8.77;;;7.07;;
21162;SDS011;10739;52.198;20.908;2023-04-24T09:33:40;12.60;;;6.45;;
21162;SDS011;10739;52.198;20.908;2023-04-24T09:36:44;11.20;;;6.90;;
21162;SDS011;10739;52.198;20.908;2023-04-24T09:39:11;8.63;;;6.03;;
21162;SDS011;10739;52.198;20.908;2023-04-24T09:41:47;11.35;;;5.90;;
21162;SDS011;10739;52.198;20.908;2023-04-24T09:44:17;11.70;;;5.80;;
21162;SDS011;10739;52.198;20.908;2023-04-24T09:46:55;11.73;;;5.93;;
21162;SDS011;10739;52.198;20.908;2023-04-24T09:49:30;17.88;;;7.68;;
21162;SDS011;10739;52.198;20.908;2023-04-24T09:52:04;10.35;;;5.40;;
21162;SDS011;10739;52.198;20.908;2023-04-24T09:54:33;9.70;;;5.97;;
21162;SDS011;10739;52.198;20.908;2023-04-24T09:57:02;9.80;;;5.25;;
21162;SDS011;10739;52.198;20.908;2023-04-24T09:59:29;13.68;;;5.70;;
21162;SDS011;10739;52.198;20.908;2023-04-24T10:01:55;10.02;;;5.60;;
21162;SDS011;10739;52.198;20.908;2023-04-24T10:04:25;14.65;;;5.97;;
21162;SDS011;10739;52.198;20.908;2023-04-24T10:06:57;10.90;;;5.15;;
21162;SDS011;10739;52.198;20.908;2023-04-24T10:09:28;12.90;;;5.40;;
21162;SDS011;10739;52.198;20.908;2023-04-24T10:11:58;9.93;;;5.47;;
21162;SDS011;10739;52.198;20.908;2023-04-24T10:14:27;9.57;;;4.93;;
21162;SDS011;10739;52.198;20.908;2023-04-24T10:16:56;10.00;;;5.30;;
21162;SDS011;10739;52.198;20.908;2023-04-24T10:19:28;9.95;;;4.97;;
21162;SDS011;10739;52.198;20.908;2023-04-24T10:21:56;9.05;;;4.80;;
21162;SDS011;10739;52.198;20.908;2023-04-24T10:24:23;9.27;;;4.53;;
21162;SDS011;10739;52.198;20.908;2023-04-24T10:26:50;12.70;;;4.45;;
21162;SDS011;10739;52.198;20.908;2023-04-24T10:29:18;12.88;;;4.35;;
21162;SDS011;10739;52.198;20.908;2023-04-24T10:31:45;7.63;;;4.88;;
21162;SDS011;10739;52.198;20.908;2023-04-24T10:34:11;6.68;;;4.57;;
21162;SDS011;10739;52.198;20.908;2023-04-24T10:36:50;13.25;;;5.45;;
21162;SDS011;10739;52.198;20.908;2023-04-24T10:39:19;5.75;;;4.82;;
21162;SDS011;10739;52.198;20.908;2023-04-24T10:41:48;7.43;;;4.95;;
21162;SDS011;10739;52.198;20.908;2023-04-24T10:44:15;11.82;;;5.10;;
21162;SDS011;10739;52.198;20.908;2023-04-24T10:46:45;10.18;;;5.47;;
21162;SDS011;10739;52.198;20.908;2023-04-24T10:49:17;11.85;;;5.68;;
21162;SDS011;10739;52.198;20.908;2023-04-24T10:51:59;9.25;;;5.47;;
21162;SDS011;10739;52.198;20.908;2023-04-24T10:59:44;12.98;;;5.90;;
21162;SDS011;10739;52.198;20.908;2023-04-24T11:02:14;7.65;;;4.22;;
21162;SDS011;10739;52.198;20.908;2023-04-24T11:04:41;10.57;;;5.55;;
21162;SDS011;10739;52.198;20.908;2023-04-24T11:07:11;6.93;;;5.30;;
21162;SDS011;10739;52.198;20.908;2023-04-24T11:09:37;11.80;;;5.13;;
21162;SDS011;10739;52.198;20.908;2023-04-24T11:12:09;6.40;;;5.07;;
21162;SDS011;10739;52.198;20.908;2023-04-24T11:15:19;10.25;;;5.72;;
21162;SDS011;10739;52.198;20.908;2023-04-24T11:17:30;10.23;;;5.05;;
21162;SDS011;10739;52.198;20.908;2023-04-24T11:20:06;11.20;;;6.10;;
21162;SDS011;10739;52.198;20.908;2023-04-24T11:22:36;7.03;;;4.75;;
21162;SDS011;10739;52.198;20.908;2023-04-24T11:25:10;11.52;;;5.25;;
21162;SDS011;10739;52.198;20.908;2023-04-24T11:27:43;9.07;;;4.93;;
21162;SDS011;10739;52.198;20.908;2023-04-24T11:30:17;11.38;;;4.90;;
21162;SDS011;10739;52.198;20.908;2023-04-24T11:32:50;6.53;;;4.97;;
21162;SDS011;10739;52.198;20.908;2023-04-24T11:35:17;7.57;;;4.90;;
21162;SDS011;10739;52.198;20.908;2023-04-24T11:37:54;9.38;;;4.95;;
21162;SDS011;10739;52.198;20.908;2023-04-24T11:40:21;12.90;;;4.70;;
21162;SDS011;10739;52.198;20.908;2023-04-24T11:42:52;9.48;;;4.88;;
21162;SDS011;10739;52.198;20.908;2023-04-24T11:45:21;14.50;;;5.23;;
21162;SDS011;10739;52.198;20.908;2023-04-24T11:47:50;7.40;;;4.75;;
21162;SDS011;10739;52.198;20.908;2023-04-24T11:50:17;7.82;;;5.05;;
21162;SDS011;10739;52.198;20.908;2023-04-24T11:52:47;7.68;;;4.85;;
21162;SDS011;10739;52.198;20.908;2023-04-24T11:57:45;7.57;;;5.00;;
21162;SDS011;10739;52.198;20.908;2023-04-24T12:00:23;7.68;;;4.88;;
21162;SDS011;10739;52.198;20.908;2023-04-24T12:03:05;8.18;;;4.57;;
21162;SDS011;10739;52.198;20.908;2023-04-24T12:05:37;9.43;;;5.45;;
21162;SDS011;10739;52.198;20.908;2023-04-24T12:08:04;9.60;;;4.95;;
21162;SDS011;10739;52.198;20.908;2023-04-24T12:10:31;7.05;;;4.60;;
21162;SDS011;10739;52.198;20.908;2023-04-24T12:12:59;14.00;;;5.20;;
21162;SDS011;10739;52.198;20.908;2023-04-24T12:15:26;12.00;;;4.63;;
21162;SDS011;10739;52.198;20.908;2023-04-24T12:17:53;9.15;;;4.93;;
21162;SDS011;10739;52.198;20.908;2023-04-24T12:20:27;11.10;;;5.30;;
21162;SDS011;10739;52.198;20.908;2023-04-24T12:22:59;7.78;;;5.53;;
21162;SDS011;10739;52.198;20.908;2023-04-24T12:25:27;8.48;;;5.72;;
21162;SDS011;10739;52.198;20.908;2023-04-24T12:30:31;15.80;;;6.65;;
21162;SDS011;10739;52.198;20.908;2023-04-24T12:33:20;10.85;;;5.88;;
21162;SDS011;10739;52.198;20.908;2023-04-24T12:35:47;10.23;;;6.22;;
21162;SDS011;10739;52.198;20.908;2023-04-24T12:38:21;12.55;;;5.50;;
21162;SDS011;10739;52.198;20.908;2023-04-24T12:41:01;10.35;;;5.18;;
21162;SDS011;10739;52.198;20.908;2023-04-24T12:43:56;26.08;;;4.90;;
21162;SDS011;10739;52.198;20.908;2023-04-24T12:46:22;21.75;;;4.28;;
21162;SDS011;10739;52.198;20.908;2023-04-24T12:48:48;8.35;;;3.40;;
21162;SDS011;10739;52.198;20.908;2023-04-24T12:51:15;11.48;;;3.85;;
21162;SDS011;10739;52.198;20.908;2023-04-24T12:53:41;8.48;;;3.75;;
21162;SDS011;10739;52.198;20.908;2023-04-24T12:56:08;15.35;;;3.60;;
21162;SDS011;10739;52.198;20.908;2023-04-24T12:58:34;14.00;;;3.38;;
21162;SDS011;10739;52.198;20.908;2023-04-24T13:01:01;14.10;;;3.28;;
21162;SDS011;10739;52.198;20.908;2023-04-24T13:03:27;16.17;;;3.47;;
21162;SDS011;10739;52.198;20.908;2023-04-24T13:05:53;9.63;;;3.17;;
21162;SDS011;10739;52.198;20.908;2023-04-24T13:08:20;12.30;;;3.20;;
21162;SDS011;10739;52.198;20.908;2023-04-24T13:10:46;7.18;;;3.55;;
21162;SDS011;10739;52.198;20.908;2023-04-24T13:13:18;5.35;;;3.10;;
21162;SDS011;10739;52.198;20.908;2023-04-24T13:15:47;6.78;;;3.40;;
21162;SDS011;10739;52.198;20.908;2023-04-24T13:18:15;11.57;;;3.70;;
21162;SDS011;10739;52.198;20.908;2023-04-24T13:20:43;6.82;;;3.15;;
21162;SDS011;10739;52.198;20.908;2023-04-24T13:23:11;12.05;;;3.28;;
21162;SDS011;10739;52.198;20.908;2023-04-24T13:25:37;7.07;;;3.47;;
21162;SDS011;10739;52.198;20.908;2023-04-24T13:28:05;3.75;;;3.05;;
21162;SDS011;10739;52.198;20.908;2023-04-24T13:30:32;9.57;;;2.88;;
21162;SDS011;10739;52.198;20.908;2023-04-24T13:32:58;9.50;;;3.72;;
21162;SDS011;10739;52.198;20.908;2023-04-24T13:35:24;16.42;;;3.63;;
21162;SDS011;10739;52.198;20.908;2023-04-24T13:37:51;4.05;;;2.63;;
21162;SDS011;10739;52.198;20.908;2023-04-24T13:40:17;8.70;;;3.88;;
21162;SDS011;10739;52.198;20.908;2023-04-24T13:42:44;15.43;;;3.63;;
21162;SDS011;10739;52.198;20.908;2023-04-24T13:45:20;5.38;;;3.70;;
21162;SDS011;10739;52.198;20.908;2023-04-24T13:47:48;6.50;;;3.92;;
21162;SDS011;10739;52.198;20.908;2023-04-24T13:50:15;12.45;;;3.33;;
21162;SDS011;10739;52.198;20.908;2023-04-24T13:52:41;8.07;;;3.30;;
21162;SDS011;10739;52.198;20.908;2023-04-24T13:55:07;9.85;;;3.40;;
21162;SDS011;10739;52.198;20.908;2023-04-24T13:57:34;14.13;;;3.60;;
21162;SDS011;10739;52.198;20.908;2023-04-24T14:00:00;6.28;;;3.50;;
21162;SDS011;10739;52.198;20.908;2023-04-24T14:02:29;9.55;;;3.72;;
21162;SDS011;10739;52.198;20.908;2023-04-24T14:04:55;5.88;;;3.55;;
21162;SDS011;10739;52.198;20.908;2023-04-24T14:07:24;14.73;;;5.75;;
21162;SDS011;10739;52.198;20.908;2023-04-24T14:09:50;6.25;;;3.63;;
21162;SDS011;10739;52.198;20.908;2023-04-24T14:12:17;6.68;;;3.70;;
21162;SDS011;10739;52.198;20.908;2023-04-24T14:14:45;5.95;;;3.65;;
21162;SDS011;10739;52.198;20.908;2023-04-24T14:17:13;8.05;;;3.60;;
21162;SDS011;10739;52.198;20.908;2023-04-24T14:19:40;6.28;;;3.22;;
21162;SDS011;10739;52.198;20.908;2023-04-24T14:22:06;9.43;;;3.67;;
21162;SDS011;10739;52.198;20.908;2023-04-24T14:24:33;7.30;;;3.50;;
21162;SDS011;10739;52.198;20.908;2023-04-24T14:26:59;14.05;;;3.90;;
21162;SDS011;10739;52.198;20.908;2023-04-24T14:29:25;7.18;;;3.67;;
21162;SDS011;10739;52.198;20.908;2023-04-24T14:31:52;6.82;;;3.42;;
21162;SDS011;10739;52.198;20.908;2023-04-24T14:34:18;7.78;;;3.28;;
21162;SDS011;10739;52.198;20.908;2023-04-24T14:36:44;8.45;;;3.88;;
21162;SDS011;10739;52.198;20.908;2023-04-24T14:39:11;7.45;;;4.40;;